Time;durP1;ratioP1;P1;durP2;ratioP2;P2;SDS_P1;SDS_P2;PMS_P1;PMS_P2;Temp;Humidity;BMP_temperature;BMP_pressure;BME280_temperature;BME280_humidity;BME280_pressure;Samples;Min_cycle;Max_cycle;Signal;HPM_P1;HPM_P2
2023/08/30 00:00:27;;;;;;;;;;;;;;;;;;4954390;28;19949;-67
2023/08/30 00:02:52;;;;;;;;;;;;;;;;;;4968056;28;20284;-67
2023/08/30 00:05:20;;;;;;;;;;;;;;;;;;4956491;28;19960;-67
2023/08/30 00:07:48;;;;;;;;;;;;;;;;;;4968347;28;20039;-66
2023/08/30 00:10:13;;;;;;;;;;;;;;;;;;4987192;28;19921;-67
2023/08/30 00:12:38;;;;;;;;;;;;;;;;;;4969173;28;20002;-67
2023/08/30 00:15:03;;;;;;;;;;;;;;;;;;4969690;28;19926;-67
2023/08/30 00:17:29;;;;;;;;;;;;;;;;;;4971127;28;19926;-66
2023/08/30 00:19:55;;;;;;;;;;;;;;;;;;4970226;28;19921;-66
2023/08/30 00:22:27;;;;;;;;;;;;;;;;;;4985648;28;19929;-67
2023/08/30 00:24:52;;;;;;;;;;;;;;;;;;4968877;28;19949;-66
2023/08/30 00:27:20;;;;;;;;;;;;;;;;;;4969386;28;19921;-66
2023/08/30 00:29:47;;;;;;;;;;;;;;;;;;4966710;28;19928;-67
2023/08/30 00:32:13;;;;;;;;;;;;;;;;;;4966471;28;19918;-67
2023/08/30 00:34:43;;;;;;;;;;;;;;;;;;4967572;28;19933;-67
2023/08/30 00:37:11;;;;;;;;;;;;;;;;;;4968431;28;19960;-67
2023/08/30 00:39:36;;;;;;;;;;;;;;;;;;4970954;28;19922;-67
2023/08/30 00:42:05;;;;;;;;;;;;;;;;;;4987496;28;19918;-67
2023/08/30 00:44:33;;;;;;;;;;;;;;;;;;4953432;28;20048;-67
2023/08/30 00:46:59;;;;;;;;;;;;;;;;;;4970041;28;19918;-66
2023/08/30 00:49:24;;;;;;;;;;;;;;;;;;4982102;28;19921;-67
2023/08/30 00:51:53;;;;;;;;;;;;;;;;;;4967047;28;19991;-66
2023/08/30 00:54:18;;;;;;;;;;;;;;;;;;4971938;28;20534;-66
2023/08/30 00:56:46;;;;;;;;;;;;;;;;;;4970631;28;20750;-66
2023/08/30 00:59:12;;;;;;;;;;;;;;;;;;4969014;28;19917;-67
2023/08/30 01:01:39;;;;;;;;;;;;;;;;;;4951122;28;19972;-67
2023/08/30 01:04:04;;;;;;;;;;;;;;;;;;4967944;28;19925;-66
2023/08/30 01:06:35;;;;;;;;;;;;;;;;;;4987085;28;19928;-67
2023/08/30 01:09:03;;;;;;;;;;;;;;;;;;4966777;28;19929;-67
2023/08/30 01:11:31;;;;;;;;;;;;;;;;;;4985926;28;19928;-67
2023/08/30 01:13:59;;;;;;;;;;;;;;;;;;4952443;28;20372;-67
2023/08/30 01:16:25;;;;;;;;;;;;;;;;;;4967023;28;19937;-66
2023/08/30 01:18:51;;;;;;;;;;;;;;;;;;4948671;28;21426;-66
2023/08/30 01:21:18;;;;;;;;;;;;;;;;;;4966473;28;19922;-67
2023/08/30 01:23:44;;;;;;;;;;;;;;;;;;4949990;28;19929;-67
2023/08/30 01:26:12;;;;;;;;;;;;;;;;;;4962269;28;19928;-66
2023/08/30 01:28:37;;;;;;;;;;;;;;;;;;4966242;28;19993;-67
2023/08/30 01:31:02;;;;;;;;;;;;;;;;;;4947258;28;19969;-67
2023/08/30 01:33:28;;;;;;;;;;;;;;;;;;4964760;28;19921;-67
2023/08/30 01:35:53;;;;;;;;;;;;;;;;;;4947780;28;20109;-68
2023/08/30 01:38:21;;;;;;;;;;;;;;;;;;4966437;28;19922;-67
2023/08/30 01:40:47;;;;;;;;;;;;;;;;;;4962085;28;19963;-67
2023/08/30 01:43:13;;;;;;;;;;;;;;;;;;4962319;28;19917;-67
2023/08/30 01:45:41;;;;;;;;;;;;;;;;;;4969035;28;19922;-67
2023/08/30 01:48:07;;;;;;;;;;;;;;;;;;4969537;28;19950;-67
2023/08/30 01:50:32;;;;;;;;;;;;;;;;;;4952873;28;20052;-67
2023/08/30 01:53:00;;;;;;;;;;;;;;;;;;4950779;28;19928;-67
2023/08/30 01:55:28;;;;;;;;;;;;;;;;;;4982090;28;19933;-67
2023/08/30 01:57:53;;;;;;;;;;;;;;;;;;4970696;28;19921;-67
2023/08/30 02:00:21;;;;;;;;;;;;;;;;;;4969234;28;19994;-67
2023/08/30 02:02:47;;;;;;;;;;;;;;;;;;4969213;28;20027;-67
2023/08/30 02:05:12;;;;;;;;;;;;;;;;;;4970860;28;19922;-67
2023/08/30 02:07:38;;;;;;;;;;;;;;;;;;4969165;28;19939;-67
2023/08/30 02:10:06;;;;;;;;;;;;;;;;;;4968879;28;19997;-66
2023/08/30 02:12:34;;;;;;;;;;;;;;;;;;4971019;28;19926;-66
2023/08/30 02:15:02;;;;;;;;;;;;;;;;;;4969628;28;19928;-66
2023/08/30 02:17:27;;;;;;;;;;;;;;;;;;4951990;28;19925;-66
2023/08/30 02:19:55;;;;;;;;;;;;;;;;;;4987836;28;21074;-66
2023/08/30 02:22:21;;;;;;;;;;;;;;;;;;4967203;28;20008;-66
2023/08/30 02:24:46;;;;;;;;;;;;;;;;;;4969339;28;19964;-66
2023/08/30 02:27:14;;;;;;;;;;;;;;;;;;4971260;28;19922;-66
2023/08/30 02:29:42;;;;;;;;;;;;;;;;;;4968604;28;19961;-66
2023/08/30 02:32:08;;;;;;;;;;;;;;;;;;4965858;28;19918;-67
2023/08/30 02:34:39;;;;;;;;;;;;;;;;;;4969733;28;20084;-66
2023/08/30 02:37:06;;;;;;;;;;;;;;;;;;4967412;28;19944;-67
2023/08/30 02:39:35;;;;;;;;;;;;;;;;;;4967653;28;19921;-67
2023/08/30 02:42:00;;;;;;;;;;;;;;;;;;4952123;28;19924;-67
2023/08/30 02:44:28;;;;;;;;;;;;;;;;;;4966501;28;19922;-66
2023/08/30 02:46:53;;;;;;;;;;;;;;;;;;4952144;28;19929;-67
2023/08/30 02:49:21;;;;;;;;;;;;;;;;;;4949903;28;19940;-67
2023/08/30 02:51:46;;;;;;;;;;;;;;;;;;4968881;28;20010;-68
2023/08/30 02:54:14;;;;;;;;;;;;;;;;;;4967566;28;19925;-67
2023/08/30 02:56:39;;;;;;;;;;;;;;;;;;4967579;28;19933;-67
2023/08/30 02:59:07;;;;;;;;;;;;;;;;;;4970655;28;19922;-67
2023/08/30 03:01:33;;;;;;;;;;;;;;;;;;4969454;28;19929;-67
2023/08/30 03:03:58;;;;;;;;;;;;;;;;;;4951281;28;20064;-67
2023/08/30 03:06:24;;;;;;;;;;;;;;;;;;4966925;28;19929;-67
2023/08/30 03:08:52;;;;;;;;;;;;;;;;;;4965301;28;20447;-67
2023/08/30 03:11:17;;;;;;;;;;;;;;;;;;4967516;28;19924;-67
2023/08/30 03:13:51;;;;;;;;;;;;;;;;;;4967285;28;20389;-66
2023/08/30 03:16:17;;;;;;;;;;;;;;;;;;4966601;28;19987;-67
2023/08/30 03:18:42;;;;;;;;;;;;;;;;;;4949787;28;19926;-67
2023/08/30 03:21:07;;;;;;;;;;;;;;;;;;4968940;28;19971;-66
2023/08/30 03:23:33;;;;;;;;;;;;;;;;;;4980528;28;19929;-67
2023/08/30 03:25:58;;;;;;;;;;;;;;;;;;4966374;28;19972;-67
2023/08/30 03:28:27;;;;;;;;;;;;;;;;;;4952353;28;19932;-67
2023/08/30 03:30:53;;;;;;;;;;;;;;;;;;4951091;28;19929;-66
2023/08/30 03:33:18;;;;;;;;;;;;;;;;;;4969575;28;19922;-67
2023/08/30 03:35:47;;;;;;;;;;;;;;;;;;4966899;28;19930;-66
2023/08/30 03:38:16;;;;;;;;;;;;;;;;;;4951080;28;21888;-66
2023/08/30 03:40:41;;;;;;;;;;;;;;;;;;4963431;28;19925;-66
2023/08/30 03:43:06;;;;;;;;;;;;;;;;;;4968464;28;20356;-66
2023/08/30 03:45:31;;;;;;;;;;;;;;;;;;4966709;28;19917;-68
2023/08/30 03:47:57;;;;;;;;;;;;;;;;;;4964622;28;19922;-66
2023/08/30 03:50:22;;;;;;;;;;;;;;;;;;4969706;28;19922;-66
2023/08/30 03:52:51;;;;;;;;;;;;;;;;;;4967247;28;19929;-67
2023/08/30 03:55:19;;;;;;;;;;;;;;;;;;4963427;28;20660;-66
2023/08/30 03:57:44;;;;;;;;;;;;;;;;;;4961451;28;19922;-67
2023/08/30 04:00:10;;;;;;;;;;;;;;;;;;4969777;28;20164;-66
2023/08/30 04:02:41;;;;;;;;;;;;;;;;;;4966242;28;20017;-67
2023/08/30 04:05:08;;;;;;;;;;;;;;;;;;4968833;28;19926;-67
2023/08/30 04:07:36;;;;;;;;;;;;;;;;;;4947001;28;20482;-67
2023/08/30 04:10:05;;;;;;;;;;;;;;;;;;4965878;28;19940;-66
2023/08/30 04:12:34;;;;;;;;;;;;;;;;;;4964724;28;20447;-66
2023/08/30 04:15:01;;;;;;;;;;;;;;;;;;4965028;28;19925;-66
2023/08/30 04:17:32;;;;;;;;;;;;;;;;;;4950027;28;20020;-66
2023/08/30 04:19:57;;;;;;;;;;;;;;;;;;4951404;28;20401;-66
2023/08/30 04:22:22;;;;;;;;;;;;;;;;;;4968110;28;19955;-66
2023/08/30 04:24:48;;;;;;;;;;;;;;;;;;4949882;28;20506;-66
2023/08/30 04:27:13;;;;;;;;;;;;;;;;;;4967343;28;19917;-66
2023/08/30 04:29:38;;;;;;;;;;;;;;;;;;4967833;28;19940;-66
2023/08/30 04:32:06;;;;;;;;;;;;;;;;;;4965616;28;19925;-66
2023/08/30 04:34:32;;;;;;;;;;;;;;;;;;4951538;28;20254;-66
2023/08/30 04:36:57;;;;;;;;;;;;;;;;;;4950987;28;19922;-67
2023/08/30 04:39:22;;;;;;;;;;;;;;;;;;4966031;28;20021;-67
2023/08/30 04:41:51;;;;;;;;;;;;;;;;;;4949758;28;19917;-67
2023/08/30 04:44:24;;;;;;;;;;;;;;;;;;4966230;28;20004;-67
2023/08/30 04:46:49;;;;;;;;;;;;;;;;;;4969004;28;19929;-67
2023/08/30 04:49:20;;;;;;;;;;;;;;;;;;4949526;28;20013;-67
2023/08/30 04:51:48;;;;;;;;;;;;;;;;;;4950269;28;19929;-67
2023/08/30 04:54:13;;;;;;;;;;;;;;;;;;4964246;28;19925;-69
2023/08/30 04:56:42;;;;;;;;;;;;;;;;;;4962383;28;19929;-68
2023/08/30 04:59:07;;;;;;;;;;;;;;;;;;4964536;28;19922;-67
2023/08/30 05:01:32;;;;;;;;;;;;;;;;;;4946136;28;19924;-66
2023/08/30 05:04:00;;;;;;;;;;;;;;;;;;4965997;28;19964;-67
2023/08/30 05:06:26;;;;;;;;;;;;;;;;;;4961025;28;19921;-67
2023/08/30 05:08:53;;;;;;;;;;;;;;;;;;4947303;28;20369;-67
2023/08/30 05:11:19;;;;;;;;;;;;;;;;;;4966719;28;20060;-66
2023/08/30 05:13:44;;;;;;;;;;;;;;;;;;4965199;28;21078;-66
2023/08/30 05:16:10;;;;;;;;;;;;;;;;;;4967237;28;19926;-66
2023/08/30 05:18:37;;;;;;;;;;;;;;;;;;4976799;28;20070;-66
2023/08/30 05:21:03;;;;;;;;;;;;;;;;;;4970503;28;19918;-65
2023/08/30 05:23:31;;;;;;;;;;;;;;;;;;4950555;28;20075;-66
2023/08/30 05:25:56;;;;;;;;;;;;;;;;;;4966912;28;19949;-67
2023/08/30 05:28:21;;;;;;;;;;;;;;;;;;4968840;28;20060;-67
2023/08/30 05:30:49;;;;;;;;;;;;;;;;;;4952948;28;20028;-67
2023/08/30 05:33:17;;;;;;;;;;;;;;;;;;4985780;28;19933;-67
2023/08/30 05:35:45;;;;;;;;;;;;;;;;;;4981829;28;19929;-67
2023/08/30 05:38:10;;;;;;;;;;;;;;;;;;4984636;28;20573;-67
2023/08/30 05:40:42;;;;;;;;;;;;;;;;;;4987197;28;19928;-66
2023/08/30 05:43:10;;;;;;;;;;;;;;;;;;4966978;28;19936;-66
2023/08/30 05:45:38;;;;;;;;;;;;;;;;;;4986957;28;20620;-66
2023/08/30 05:48:04;;;;;;;;;;;;;;;;;;4950481;28;19936;-66
2023/08/30 05:50:29;;;;;;;;;;;;;;;;;;4950641;28;20760;-66
2023/08/30 05:52:54;;;;;;;;;;;;;;;;;;4973315;28;19921;-68
2023/08/30 05:55:20;;;;;;;;;;;;;;;;;;4966736;28;19921;-67
2023/08/30 05:57:45;;;;;;;;;;;;;;;;;;4966122;28;19921;-66
2023/08/30 06:00:10;;;;;;;;;;;;;;;;;;4967665;28;20941;-66
2023/08/30 06:02:38;;;;;;;;;;;;;;;;;;4964524;28;19917;-67
2023/08/30 06:05:03;;;;;;;;;;;;;;;;;;4966933;28;19972;-67
2023/08/30 06:07:31;;;;;;;;;;;;;;;;;;4948460;28;21799;-67
2023/08/30 06:09:56;;;;;;;;;;;;;;;;;;4963776;28;20023;-67
2023/08/30 06:12:22;;;;;;;;;;;;;;;;;;4948857;28;19952;-67
2023/08/30 06:14:52;;;;;;;;;;;;;;;;;;4967421;28;19921;-68
2023/08/30 06:17:17;;;;;;;;;;;;;;;;;;4983840;28;19990;-68
2023/08/30 06:19:45;;;;;;;;;;;;;;;;;;4970101;28;20467;-67
2023/08/30 06:22:10;;;;;;;;;;;;;;;;;;4966225;28;19926;-67
2023/08/30 06:24:38;;;;;;;;;;;;;;;;;;4967023;28;19926;-67
2023/08/30 06:27:03;;;;;;;;;;;;;;;;;;4983208;28;19960;-67
2023/08/30 06:29:29;;;;;;;;;;;;;;;;;;4946626;28;20616;-67
2023/08/30 06:31:54;;;;;;;;;;;;;;;;;;4977190;28;19979;-67
2023/08/30 06:34:22;;;;;;;;;;;;;;;;;;4971433;28;20007;-67
2023/08/30 06:36:48;;;;;;;;;;;;;;;;;;4954661;28;19948;-68
2023/08/30 06:39:15;;;;;;;;;;;;;;;;;;4970713;28;19917;-67
2023/08/30 06:41:40;;;;;;;;;;;;;;;;;;4988071;28;21296;-67
2023/08/30 06:44:08;;;;;;;;;;;;;;;;;;4968927;28;19948;-67
2023/08/30 06:46:37;;;;;;;;;;;;;;;;;;4968187;28;20376;-67
2023/08/30 06:49:02;;;;;;;;;;;;;;;;;;4983477;28;19947;-67
2023/08/30 06:51:28;;;;;;;;;;;;;;;;;;4963625;28;19918;-68
2023/08/30 06:53:55;;;;;;;;;;;;;;;;;;4964011;28;19957;-67
2023/08/30 06:56:23;;;;;;;;;;;;;;;;;;4987977;28;19932;-66
2023/08/30 06:58:48;;;;;;;;;;;;;;;;;;4968543;28;19917;-67
2023/08/30 07:01:16;;;;;;;;;;;;;;;;;;4952593;28;20019;-68
2023/08/30 07:03:44;;;;;;;;;;;;;;;;;;4984937;28;19921;-66
2023/08/30 07:06:09;;;;;;;;;;;;;;;;;;4985564;28;20349;-68
2023/08/30 07:08:38;;;;;;;;;;;;;;;;;;4986251;28;19939;-67
2023/08/30 07:11:06;;;;;;;;;;;;;;;;;;4951695;28;19971;-68
2023/08/30 07:13:33;;;;;;;;;;;;;;;;;;4986530;28;20508;-69
2023/08/30 07:15:58;;;;;;;;;;;;;;;;;;4984662;28;20308;-68
2023/08/30 07:18:26;;;;;;;;;;;;;;;;;;4949685;28;20037;-68
2023/08/30 07:20:52;;;;;;;;;;;;;;;;;;4944859;28;19922;-68
2023/08/30 07:23:19;;;;;;;;;;;;;;;;;;4944743;28;19925;-69
2023/08/30 07:25:47;;;;;;;;;;;;;;;;;;4948432;28;20410;-68
2023/08/30 07:28:12;;;;;;;;;;;;;;;;;;4962283;28;19928;-68
2023/08/30 07:30:38;;;;;;;;;;;;;;;;;;4978102;28;19969;-68
2023/08/30 07:33:08;;;;;;;;;;;;;;;;;;4967366;28;19942;-69
2023/08/30 07:35:33;;;;;;;;;;;;;;;;;;4948530;28;19930;-68
2023/08/30 07:37:59;;;;;;;;;;;;;;;;;;4969089;28;19917;-69
2023/08/30 07:40:26;;;;;;;;;;;;;;;;;;4964387;28;19928;-69
2023/08/30 07:42:54;;;;;;;;;;;;;;;;;;4965771;28;19921;-70
2023/08/30 07:45:22;;;;;;;;;;;;;;;;;;4950983;28;19933;-69
2023/08/30 07:47:49;;;;;;;;;;;;;;;;;;4964164;28;19922;-70
2023/08/30 07:50:17;;;;;;;;;;;;;;;;;;4946935;28;20052;-70
2023/08/30 07:52:42;;;;;;;;;;;;;;;;;;4950158;28;19932;-69
2023/08/30 07:55:10;;;;;;;;;;;;;;;;;;4964839;28;19937;-70
2023/08/30 07:57:38;;;;;;;;;;;;;;;;;;4967725;28;19922;-69
2023/08/30 08:00:03;;;;;;;;;;;;;;;;;;4946450;28;19917;-69
2023/08/30 08:02:31;;;;;;;;;;;;;;;;;;4963711;28;19998;-71
2023/08/30 08:04:56;;;;;;;;;;;;;;;;;;4980105;28;20001;-69
2023/08/30 08:07:22;;;;;;;;;;;;;;;;;;4965453;28;19921;-70
2023/08/30 08:09:52;;;;;;;;;;;;;;;;;;4968039;28;22157;-70
2023/08/30 08:12:20;;;;;;;;;;;;;;;;;;4967240;28;20381;-69
2023/08/30 08:14:45;;;;;;;;;;;;;;;;;;4964318;28;19918;-69
2023/08/30 08:17:13;;;;;;;;;;;;;;;;;;4949536;28;19922;-68
2023/08/30 08:19:39;;;;;;;;;;;;;;;;;;4964983;28;19957;-69
2023/08/30 08:22:05;;;;;;;;;;;;;;;;;;4963021;28;19992;-68
2023/08/30 08:24:30;;;;;;;;;;;;;;;;;;4979343;28;20428;-68
2023/08/30 08:26:59;;;;;;;;;;;;;;;;;;4968905;28;19918;-69
2023/08/30 08:29:24;;;;;;;;;;;;;;;;;;4986194;28;20385;-75
2023/08/30 08:31:53;;;;;;;;;;;;;;;;;;4988294;28;19925;-70
2023/08/30 08:34:18;;;;;;;;;;;;;;;;;;4968685;28;19925;-70
2023/08/30 08:36:46;;;;;;;;;;;;;;;;;;4969763;28;19925;-70
2023/08/30 08:39:14;;;;;;;;;;;;;;;;;;4970301;28;19921;-69
2023/08/30 08:41:43;;;;;;;;;;;;;;;;;;4951419;28;21888;-68
2023/08/30 08:44:11;;;;;;;;;;;;;;;;;;4982666;28;19940;-70
2023/08/30 08:46:38;;;;;;;;;;;;;;;;;;4986205;28;20312;-70
2023/08/30 08:49:03;;;;;;;;;;;;;;;;;;4967717;28;19932;-71
2023/08/30 08:51:28;;;;;;;;;;;;;;;;;;4953896;28;20272;-72
2023/08/30 08:53:54;;;;;;;;;;;;;;;;;;4986435;28;19945;-71
2023/08/30 08:56:22;;;;;;;;;;;;;;;;;;4987536;28;19993;-70
2023/08/30 08:58:50;;;;;;;;;;;;;;;;;;4988009;28;19967;-70
2023/08/30 09:01:20;;;;;;;;;;;;;;;;;;4970928;28;19917;-69
2023/08/30 09:03:48;;;;;;;;;;;;;;;;;;4970682;28;19917;-70
2023/08/30 09:06:16;;;;;;;;;;;;;;;;;;4953410;28;19963;-70
2023/08/30 09:08:41;;;;;;;;;;;;;;;;;;4984825;28;19917;-71
2023/08/30 09:11:09;;;;;;;;;;;;;;;;;;4968818;28;19917;-72
2023/08/30 09:13:35;;;;;;;;;;;;;;;;;;4965983;28;19929;-72
2023/08/30 09:16:02;;;;;;;;;;;;;;;;;;4986568;28;19921;-73
2023/08/30 09:18:28;;;;;;;;;;;;;;;;;;4948018;28;19922;-69
2023/08/30 09:20:53;;;;;;;;;;;;;;;;;;4962833;28;19918;-71
2023/08/30 09:23:21;;;;;;;;;;;;;;;;;;4964984;28;19953;-68
2023/08/30 09:25:47;;;;;;;;;;;;;;;;;;4950911;28;19929;-70
2023/08/30 09:28:12;;;;;;;;;;;;;;;;;;4970744;28;20051;-68
2023/08/30 09:30:39;;;;;;;;;;;;;;;;;;4964995;28;19953;-72
2023/08/30 09:33:04;;;;;;;;;;;;;;;;;;4960284;28;19977;-74
2023/08/30 09:35:30;;;;;;;;;;;;;;;;;;4960805;28;20904;-70
2023/08/30 09:37:55;;;;;;;;;;;;;;;;;;4961540;28;19964;-68
2023/08/30 09:40:23;;;;;;;;;;;;;;;;;;4951851;28;19928;-68
2023/08/30 09:42:48;;;;;;;;;;;;;;;;;;4963514;28;19961;-70
2023/08/30 09:45:16;;;;;;;;;;;;;;;;;;4950173;28;19980;-69
2023/08/30 09:47:44;;;;;;;;;;;;;;;;;;4947119;28;20067;-69
2023/08/30 09:50:12;;;;;;;;;;;;;;;;;;4966008;28;20004;-69
2023/08/30 09:52:40;;;;;;;;;;;;;;;;;;4965864;28;20012;-70
2023/08/30 09:55:05;;;;;;;;;;;;;;;;;;4962171;28;19926;-69
2023/08/30 09:57:33;;;;;;;;;;;;;;;;;;4977291;28;19917;-71
2023/08/30 09:59:59;;;;;;;;;;;;;;;;;;4959126;28;20005;-70
2023/08/30 10:02:28;;;;;;;;;;;;;;;;;;4961013;28;19976;-71
2023/08/30 10:04:53;;;;;;;;;;;;;;;;;;4962626;28;19926;-71
2023/08/30 10:07:18;;;;;;;;;;;;;;;;;;4965242;28;20457;-71
2023/08/30 10:09:44;;;;;;;;;;;;;;;;;;4961721;28;20008;-70
2023/08/30 10:12:09;;;;;;;;;;;;;;;;;;4964819;28;20456;-70
2023/08/30 10:14:38;;;;;;;;;;;;;;;;;;4967479;28;19926;-71
2023/08/30 10:17:04;;;;;;;;;;;;;;;;;;4966463;28;19956;-69
2023/08/30 10:19:30;;;;;;;;;;;;;;;;;;4946580;28;19925;-70
2023/08/30 10:21:55;;;;;;;;;;;;;;;;;;4947611;28;19929;-69
2023/08/30 10:24:20;;;;;;;;;;;;;;;;;;4949103;28;19922;-69
2023/08/30 10:26:45;;;;;;;;;;;;;;;;;;4948483;28;19922;-69
2023/08/30 10:29:11;;;;;;;;;;;;;;;;;;4948359;28;19918;-68
2023/08/30 10:31:36;;;;;;;;;;;;;;;;;;4967889;28;19922;-70
2023/08/30 10:34:01;;;;;;;;;;;;;;;;;;4966079;28;19922;-68
2023/08/30 10:36:27;;;;;;;;;;;;;;;;;;4981705;28;19933;-70
2023/08/30 10:38:55;;;;;;;;;;;;;;;;;;4964606;28;20034;-69
2023/08/30 10:41:20;;;;;;;;;;;;;;;;;;4983146;28;19948;-70
2023/08/30 10:43:45;;;;;;;;;;;;;;;;;;4966731;28;19929;-70
2023/08/30 10:46:11;;;;;;;;;;;;;;;;;;4946455;28;19960;-70
2023/08/30 10:48:39;;;;;;;;;;;;;;;;;;4960309;28;19917;-70
2023/08/30 10:51:07;;;;;;;;;;;;;;;;;;4964021;28;20008;-70
2023/08/30 10:53:32;;;;;;;;;;;;;;;;;;4961867;28;20057;-70
2023/08/30 10:55:58;;;;;;;;;;;;;;;;;;4946093;28;20462;-69
2023/08/30 10:58:23;;;;;;;;;;;;;;;;;;4948726;28;20974;-70
2023/08/30 11:00:48;;;;;;;;;;;;;;;;;;4961890;28;19933;-70
2023/08/30 11:03:14;;;;;;;;;;;;;;;;;;4967240;28;19937;-71
2023/08/30 11:05:42;;;;;;;;;;;;;;;;;;4943071;28;19917;-72
2023/08/30 11:08:09;;;;;;;;;;;;;;;;;;4947267;28;20020;-70
2023/08/30 11:10:39;;;;;;;;;;;;;;;;;;4960936;28;20499;-70
2023/08/30 11:13:06;;;;;;;;;;;;;;;;;;4978322;28;19925;-71
2023/08/30 11:15:36;;;;;;;;;;;;;;;;;;4979043;28;19960;-71
2023/08/30 11:18:01;;;;;;;;;;;;;;;;;;4945814;28;20028;-69
2023/08/30 11:20:29;;;;;;;;;;;;;;;;;;4963824;28;20281;-71
2023/08/30 11:22:54;;;;;;;;;;;;;;;;;;4947069;28;20783;-71
2023/08/30 11:25:20;;;;;;;;;;;;;;;;;;4967995;28;19921;-71
2023/08/30 11:27:45;;;;;;;;;;;;;;;;;;4981870;28;19929;-70
2023/08/30 11:30:11;;;;;;;;;;;;;;;;;;4951693;28;20329;-69
2023/08/30 11:32:36;;;;;;;;;;;;;;;;;;4965674;28;19928;-69
2023/08/30 11:35:01;;;;;;;;;;;;;;;;;;4947435;28;19925;-69
2023/08/30 11:37:27;;;;;;;;;;;;;;;;;;4945493;28;19984;-69
2023/08/30 11:39:52;;;;;;;;;;;;;;;;;;4963182;28;19922;-69
2023/08/30 11:42:17;;;;;;;;;;;;;;;;;;4966466;28;19932;-68
2023/08/30 11:44:46;;;;;;;;;;;;;;;;;;4946572;28;20337;-69
2023/08/30 11:47:14;;;;;;;;;;;;;;;;;;4965485;28;20627;-68
2023/08/30 11:49:40;;;;;;;;;;;;;;;;;;4947058;28;19922;-69
2023/08/30 11:52:05;;;;;;;;;;;;;;;;;;4963442;28;19924;-68
2023/08/30 11:54:30;;;;;;;;;;;;;;;;;;4965162;28;19923;-68
2023/08/30 11:56:56;;;;;;;;;;;;;;;;;;4963742;28;19926;-68
2023/08/30 11:59:24;;;;;;;;;;;;;;;;;;4965035;28;19928;-68
2023/08/30 12:01:52;;;;;;;;;;;;;;;;;;4964884;28;19984;-69
2023/08/30 12:04:18;;;;;;;;;;;;;;;;;;4965600;28;19976;-68
2023/08/30 12:06:43;;;;;;;;;;;;;;;;;;4964215;28;19965;-68
2023/08/30 12:09:09;;;;;;;;;;;;;;;;;;4948474;28;20351;-69
2023/08/30 12:11:34;;;;;;;;;;;;;;;;;;4980112;28;19922;-69
2023/08/30 12:14:00;;;;;;;;;;;;;;;;;;4965580;28;19968;-69
2023/08/30 12:16:27;;;;;;;;;;;;;;;;;;4967184;28;19926;-69
2023/08/30 12:18:53;;;;;;;;;;;;;;;;;;4959453;28;19936;-69
2023/08/30 12:21:21;;;;;;;;;;;;;;;;;;4964352;28;20357;-69
2023/08/30 12:23:46;;;;;;;;;;;;;;;;;;4961697;28;19949;-71
2023/08/30 12:26:11;;;;;;;;;;;;;;;;;;4980497;28;20016;-70
2023/08/30 12:28:37;;;;;;;;;;;;;;;;;;4961888;28;19925;-72
2023/08/30 12:37:55;;;;;;;;;;;;;;;;;;;;;
2023/08/30 12:40:22;;;;;;;;;;;;;;;;;;4960967;28;19969;-71
2023/08/30 12:42:47;;;;;;;;;;;;;;;;;;4946229;28;20135;-70
2023/08/30 12:45:13;;;;;;;;;;;;;;;;;;4963747;28;19917;-69
2023/08/30 12:47:38;;;;;;;;;;;;;;;;;;4963065;28;19921;-68
2023/08/30 12:50:03;;;;;;;;;;;;;;;;;;4962503;28;19992;-68
2023/08/30 12:52:28;;;;;;;;;;;;;;;;;;4962746;28;19918;-69
2023/08/30 12:54:57;;;;;;;;;;;;;;;;;;4975662;28;20750;-68
2023/08/30 12:57:22;;;;;;;;;;;;;;;;;;4964669;28;19917;-69
2023/08/30 12:59:56;;;;;;;;;;;;;;;;;;4964827;28;19918;-69
2023/08/30 13:02:24;;;;;;;;;;;;;;;;;;4962949;28;19922;-69
2023/08/30 13:04:49;;;;;;;;;;;;;;;;;;4946051;28;20253;-69
2023/08/30 13:07:20;;;;;;;;;;;;;;;;;;4980682;28;19921;-69
2023/08/30 13:09:47;;;;;;;;;;;;;;;;;;4948540;28;20366;-69
2023/08/30 13:12:13;;;;;;;;;;;;;;;;;;4944520;28;20012;-71
2023/08/30 13:14:38;;;;;;;;;;;;;;;;;;4981177;28;19991;-70
2023/08/30 13:17:08;;;;;;;;;;;;;;;;;;4964677;28;20000;-71
2023/08/30 13:19:34;;;;;;;;;;;;;;;;;;4962884;28;19972;-71
2023/08/30 13:22:02;;;;;;;;;;;;;;;;;;4949258;28;19952;-70
2023/08/30 13:24:27;;;;;;;;;;;;;;;;;;4956406;28;19922;-71
2023/08/30 13:26:53;;;;;;;;;;;;;;;;;;4949291;28;20407;-71
2023/08/30 13:29:18;;;;;;;;;;;;;;;;;;4940442;28;19937;-71
2023/08/30 13:31:43;;;;;;;;;;;;;;;;;;4965360;28;19929;-71
2023/08/30 13:34:09;;;;;;;;;;;;;;;;;;4962998;28;20173;-72
2023/08/30 13:36:39;;;;;;;;;;;;;;;;;;4963333;28;20618;-71
2023/08/30 13:39:07;;;;;;;;;;;;;;;;;;4963869;28;19929;-70
2023/08/30 13:41:33;;;;;;;;;;;;;;;;;;4949137;28;19941;-70
2023/08/30 13:43:58;;;;;;;;;;;;;;;;;;4962560;28;20591;-71
2023/08/30 13:46:23;;;;;;;;;;;;;;;;;;4973727;28;19969;-70
2023/08/30 13:48:49;;;;;;;;;;;;;;;;;;4945973;28;19997;-70
2023/08/30 13:51:16;;;;;;;;;;;;;;;;;;4944160;28;19925;-70
2023/08/30 13:53:47;;;;;;;;;;;;;;;;;;4964105;28;20888;-69
2023/08/30 13:56:13;;;;;;;;;;;;;;;;;;4977390;28;19926;-72
2023/08/30 13:58:41;;;;;;;;;;;;;;;;;;4945848;28;19917;-73
2023/08/30 14:01:07;;;;;;;;;;;;;;;;;;4945850;28;19922;-73
2023/08/30 14:03:33;;;;;;;;;;;;;;;;;;4962382;28;19929;-72
2023/08/30 14:06:00;;;;;;;;;;;;;;;;;;4973774;28;19922;-74
2023/08/30 14:08:25;;;;;;;;;;;;;;;;;;4964492;28;19929;-75
2023/08/30 14:10:51;;;;;;;;;;;;;;;;;;4965004;28;20586;-71
2023/08/30 14:13:16;;;;;;;;;;;;;;;;;;4964530;28;19964;-70
2023/08/30 14:15:42;;;;;;;;;;;;;;;;;;4964632;28;19925;-70
2023/08/30 14:18:07;;;;;;;;;;;;;;;;;;4973502;28;19929;-71
2023/08/30 14:20:32;;;;;;;;;;;;;;;;;;4977293;28;19922;-71
2023/08/30 14:22:58;;;;;;;;;;;;;;;;;;4951968;28;19953;-73
2023/08/30 14:25:23;;;;;;;;;;;;;;;;;;4980513;28;19948;-73
2023/08/30 14:27:50;;;;;;;;;;;;;;;;;;4967646;28;19957;-74
2023/08/30 14:30:15;;;;;;;;;;;;;;;;;;4965349;28;20055;-75
2023/08/30 14:32:41;;;;;;;;;;;;;;;;;;4949964;28;19922;-74
2023/08/30 14:35:06;;;;;;;;;;;;;;;;;;4965364;28;19921;-74
2023/08/30 14:37:31;;;;;;;;;;;;;;;;;;4948974;28;20008;-72
2023/08/30 14:39:57;;;;;;;;;;;;;;;;;;4939662;28;20420;-73
2023/08/30 14:42:22;;;;;;;;;;;;;;;;;;4962747;28;19944;-73
2023/08/30 14:44:47;;;;;;;;;;;;;;;;;;4948342;28;20360;-74
2023/08/30 14:47:14;;;;;;;;;;;;;;;;;;4946714;28;19922;-74
2023/08/30 14:49:42;;;;;;;;;;;;;;;;;;4944770;28;19968;-73
2023/08/30 14:52:07;;;;;;;;;;;;;;;;;;4980273;28;19926;-74
2023/08/30 14:54:42;;;;;;;;;;;;;;;;;;4967550;28;20044;-70
2023/08/30 14:57:28;;;;;;;;;;;;;;;;;;4980646;28;19932;-73
2023/08/30 14:59:55;;;;;;;;;;;;;;;;;;4965441;28;19922;-72
2023/08/30 15:02:25;;;;;;;;;;;;;;;;;;4985799;28;19961;-74
2023/08/30 15:04:51;;;;;;;;;;;;;;;;;;4956520;28;19922;-74
2023/08/30 15:07:18;;;;;;;;;;;;;;;;;;4983839;28;20031;-73
2023/08/30 15:09:43;;;;;;;;;;;;;;;;;;4984485;28;19921;-75
2023/08/30 15:12:11;;;;;;;;;;;;;;;;;;4985175;28;19952;-77
2023/08/30 15:14:40;;;;;;;;;;;;;;;;;;4955431;28;19921;-75
2023/08/30 15:17:08;;;;;;;;;;;;;;;;;;4971107;28;20359;-76
2023/08/30 15:19:33;;;;;;;;;;;;;;;;;;4972263;28;19933;-76
2023/08/30 15:22:01;;;;;;;;;;;;;;;;;;4991318;28;19924;-73
2023/08/30 15:24:27;;;;;;;;;;;;;;;;;;4970500;28;19921;-77
2023/08/30 15:26:52;;;;;;;;;;;;;;;;;;4986117;28;19917;-77
2023/08/30 15:29:18;;;;;;;;;;;;;;;;;;4986926;28;19957;-75
2023/08/30 15:31:43;;;;;;;;;;;;;;;;;;4991287;28;19964;-73
2023/08/30 15:34:09;;;;;;;;;;;;;;;;;;4981136;28;19921;-75
2023/08/30 15:36:34;;;;;;;;;;;;;;;;;;4984986;28;19921;-73
2023/08/30 15:38:59;;;;;;;;;;;;;;;;;;4985827;28;19961;-73
2023/08/30 15:41:24;;;;;;;;;;;;;;;;;;4965895;28;19971;-74
2023/08/30 15:43:52;;;;;;;;;;;;;;;;;;4966954;28;20845;-72
2023/08/30 15:46:20;;;;;;;;;;;;;;;;;;4979630;28;20289;-71
2023/08/30 15:48:51;;;;;;;;;;;;;;;;;;4951882;28;19925;-71
2023/08/30 15:51:19;;;;;;;;;;;;;;;;;;4968589;28;20043;-72
2023/08/30 15:53:47;;;;;;;;;;;;;;;;;;4951202;28;19947;-74
2023/08/30 15:56:13;;;;;;;;;;;;;;;;;;4986048;28;19925;-73
2023/08/30 15:58:38;;;;;;;;;;;;;;;;;;4963826;28;19926;-72
2023/08/30 16:01:04;;;;;;;;;;;;;;;;;;4968395;28;19931;-74
2023/08/30 16:03:29;;;;;;;;;;;;;;;;;;4947794;28;20000;-75
2023/08/30 16:05:55;;;;;;;;;;;;;;;;;;4984355;28;19921;-74
2023/08/30 16:08:25;;;;;;;;;;;;;;;;;;4967202;28;19978;-73
2023/08/30 16:10:53;;;;;;;;;;;;;;;;;;4966170;28;19953;-73
2023/08/30 16:16:34;;;;;;;;;;;;;;;;;;4984814;28;20349;-72
2023/08/30 16:19:01;;;;;;;;;;;;;;;;;;4986290;28;20028;-71
2023/08/30 16:21:26;;;;;;;;;;;;;;;;;;4986071;28;21915;-72
2023/08/30 16:23:51;;;;;;;;;;;;;;;;;;4986404;28;19921;-71
2023/08/30 16:26:17;;;;;;;;;;;;;;;;;;4985821;28;19928;-72
2023/08/30 16:28:42;;;;;;;;;;;;;;;;;;4973763;28;19917;-72
2023/08/30 16:31:10;;;;;;;;;;;;;;;;;;4989980;28;19959;-72
2023/08/30 16:33:38;;;;;;;;;;;;;;;;;;4969065;28;20016;-72
2023/08/30 16:36:06;;;;;;;;;;;;;;;;;;4957212;28;20516;-73
2023/08/30 16:38:33;;;;;;;;;;;;;;;;;;4981990;28;19925;-73
2023/08/30 16:41:03;;;;;;;;;;;;;;;;;;4956871;28;19924;-73
2023/08/30 16:43:31;;;;;;;;;;;;;;;;;;4989335;28;20004;-72
2023/08/30 16:45:59;;;;;;;;;;;;;;;;;;4969067;28;19918;-72
2023/08/30 16:48:28;;;;;;;;;;;;;;;;;;4952545;28;19921;-74
2023/08/30 16:50:53;;;;;;;;;;;;;;;;;;4987447;28;19921;-73